createdAt,value
2019-02-23T00:00:40.142Z,21.50
2019-02-23T00:05:42.816Z,21.50
2019-02-23T00:10:45.518Z,21.46
2019-02-23T00:15:48.185Z,21.43
2019-02-23T00:20:50.854Z,21.44
2019-02-23T00:25:53.501Z,21.42
2019-02-23T00:30:56.150Z,21.41
2019-02-23T00:35:58.824Z,21.41
2019-02-23T00:41:01.484Z,21.33
2019-02-23T00:46:04.162Z,21.36
2019-02-23T00:51:06.967Z,21.36
2019-02-23T00:56:09.620Z,21.35
2019-02-23T01:01:12.288Z,21.33
2019-02-23T01:06:15.000Z,21.29
2019-02-23T01:11:17.656Z,21.32
2019-02-23T01:21:22.111Z,21.35
2019-02-23T01:26:24.794Z,21.32
2019-02-23T01:31:27.456Z,21.31
2019-02-23T01:36:30.128Z,21.28
2019-02-23T01:41:32.864Z,21.26
2019-02-23T01:46:35.538Z,21.24
2019-02-23T01:51:38.201Z,21.26
2019-02-23T01:56:40.872Z,21.24
2019-02-23T02:01:43.522Z,21.25
2019-02-23T02:06:46.214Z,21.24
2019-02-23T02:11:48.860Z,21.25
2019-02-23T02:16:51.519Z,21.25
2019-02-23T02:21:54.277Z,21.22
2019-02-23T02:26:56.940Z,21.20
2019-02-23T02:31:59.625Z,21.20
2019-02-23T02:37:02.304Z,21.22
2019-02-23T02:42:04.950Z,21.17
2019-02-23T02:47:07.627Z,21.17
2019-02-23T02:52:10.270Z,21.15
2019-02-23T02:57:12.939Z,21.13
2019-02-23T03:02:15.584Z,21.09
2019-02-23T03:07:18.252Z,21.12
2019-02-23T03:12:20.960Z,21.09
2019-02-23T03:17:23.608Z,21.09
2019-02-23T03:22:26.276Z,21.07
2019-02-23T03:27:28.948Z,21.04
2019-02-23T03:32:31.627Z,21.04
2019-02-23T03:37:34.296Z,21.03
2019-02-23T03:42:36.991Z,21.02
2019-02-23T03:47:39.667Z,21.00
2019-02-23T03:52:42.341Z,20.99
2019-02-23T03:57:45.019Z,20.99
2019-02-23T04:02:47.663Z,20.97
2019-02-23T04:07:50.331Z,20.95
2019-02-23T04:12:53.014Z,20.92
2019-02-23T04:17:55.671Z,20.88
2019-02-23T04:22:58.319Z,20.82
2019-02-23T04:28:01.135Z,20.87
2019-02-23T04:33:03.851Z,20.88
2019-02-23T04:38:06.530Z,20.88
2019-02-23T04:43:09.207Z,20.87
2019-02-23T04:48:11.878Z,20.86
2019-02-23T04:53:14.557Z,20.89
2019-02-23T04:58:17.229Z,20.85
2019-02-23T05:03:19.907Z,20.86
2019-02-23T05:08:22.642Z,20.88
2019-02-23T05:13:25.328Z,20.89
2019-02-23T05:18:28.004Z,20.85
2019-02-23T05:23:30.759Z,20.87
2019-02-23T05:28:33.495Z,20.82
2019-02-23T05:33:36.156Z,20.83
2019-02-23T05:38:38.821Z,20.83
2019-02-23T05:43:41.492Z,20.86
2019-02-23T05:48:44.151Z,20.81
2019-02-23T05:53:46.855Z,20.80
2019-02-23T05:58:49.535Z,20.80
2019-02-23T06:03:52.193Z,20.77
2019-02-23T06:08:54.859Z,20.75
2019-02-23T06:13:57.524Z,20.79
2019-02-23T06:19:00.233Z,20.71
2019-02-23T06:24:02.911Z,20.76
2019-02-23T06:29:05.599Z,20.73
2019-02-23T06:34:16.165Z,20.75
2019-02-23T06:39:12.635Z,20.71
2019-02-23T06:44:15.343Z,20.75
2019-02-23T06:49:17.992Z,20.75
2019-02-23T06:54:20.785Z,20.72
2019-02-23T06:59:23.583Z,20.74
2019-02-23T07:04:26.350Z,20.71
2019-02-23T07:09:29.156Z,20.71
2019-02-23T07:14:32.319Z,20.69
2019-02-23T07:19:35.108Z,20.71
2019-02-23T07:24:37.902Z,20.71
2019-02-23T07:29:40.685Z,20.74
2019-02-23T07:34:43.469Z,20.70
2019-02-23T07:39:46.330Z,20.71
2019-02-23T07:44:49.118Z,20.75
2019-02-23T07:49:51.900Z,20.70
2019-02-23T07:54:54.689Z,20.76
2019-02-23T07:59:57.484Z,20.78
2019-02-23T08:05:00.330Z,20.71
2019-02-23T08:10:03.145Z,20.74
2019-02-23T08:15:07.612Z,20.70
2019-02-23T08:20:13.473Z,20.75
2019-02-23T08:25:16.273Z,20.72
2019-02-23T08:30:19.033Z,20.74
2019-02-23T08:35:21.820Z,20.72
2019-02-23T08:40:24.628Z,20.74
2019-02-23T08:45:27.487Z,20.71
2019-02-23T08:50:30.330Z,20.73
2019-02-23T08:55:33.105Z,20.67
2019-02-23T09:00:35.961Z,20.75
2019-02-23T09:05:38.798Z,20.77
2019-02-23T09:10:41.584Z,20.74
2019-02-23T09:15:44.375Z,14.59
2019-02-23T09:20:47.278Z,12.10
2019-02-23T09:25:50.064Z,12.10
2019-02-23T09:30:52.856Z,11.37
2019-02-23T09:35:55.636Z,11.52
2019-02-23T09:40:58.416Z,11.54
2019-02-23T09:46:01.181Z,11.57
2019-02-23T09:51:04.048Z,10.78
2019-02-23T09:56:06.825Z,11.48
2019-02-23T10:01:09.607Z,12.04
2019-02-23T10:06:12.405Z,11.84
2019-02-23T10:11:15.172Z,11.20
2019-02-23T10:16:17.939Z,12.41
2019-02-23T10:21:20.724Z,11.54
2019-02-23T10:26:23.528Z,11.01
2019-02-23T10:31:26.316Z,11.41
2019-02-23T10:36:29.096Z,10.89
2019-02-23T10:41:31.878Z,11.76
2019-02-23T10:46:34.664Z,11.50
2019-02-23T10:51:37.527Z,11.90
2019-02-23T10:56:40.407Z,10.74
2019-02-23T11:01:43.204Z,12.10
2019-02-23T11:06:46.010Z,11.71
2019-02-23T11:11:48.815Z,10.95
2019-02-23T11:16:51.664Z,11.80
2019-02-23T11:21:54.537Z,11.87
2019-02-23T11:26:57.304Z,11.72
2019-02-23T11:32:00.098Z,11.47
2019-02-23T11:37:02.879Z,12.04
2019-02-23T11:42:05.686Z,13.72
2019-02-23T11:47:08.516Z,12.78
2019-02-23T11:52:11.300Z,12.93
2019-02-23T11:57:14.087Z,11.94
2019-02-23T12:02:16.848Z,12.13
2019-02-23T12:07:19.638Z,11.49
2019-02-23T12:12:22.440Z,13.01
2019-02-23T12:17:25.227Z,12.10
2019-02-23T12:22:28.044Z,11.57
2019-02-23T12:27:30.828Z,12.20
2019-02-23T12:32:33.691Z,12.11
2019-02-23T12:37:36.492Z,11.74
2019-02-23T12:42:39.357Z,12.34
2019-02-23T12:47:42.208Z,11.37
2019-02-23T12:52:44.995Z,11.13
2019-02-23T12:57:47.777Z,11.75
2019-02-23T13:02:50.668Z,12.67
2019-02-23T13:07:53.528Z,12.63
2019-02-23T13:13:00.801Z,12.18
2019-02-23T13:18:11.172Z,12.77
2019-02-23T13:23:24.687Z,12.09
2019-02-23T13:28:28.993Z,12.39
2019-02-23T13:33:39.067Z,12.43
2019-02-23T13:38:49.271Z,11.93
2019-02-23T13:44:05.307Z,11.41
2019-02-23T13:49:19.322Z,12.85
2019-02-23T13:54:26.389Z,11.62
2019-02-23T13:59:52.801Z,11.17
2019-02-23T14:05:06.213Z,10.80
2019-02-23T14:10:25.885Z,11.53
2019-02-23T14:15:45.199Z,14.22
2019-02-23T14:20:49.483Z,15.40
2019-02-23T14:26:03.180Z,15.85
2019-02-23T14:31:10.395Z,16.16
2019-02-23T14:36:26.969Z,16.37
2019-02-23T14:41:31.268Z,16.56
2019-02-23T14:46:41.809Z,16.63
2019-02-23T14:51:46.101Z,16.78
2019-02-23T14:56:53.478Z,16.83
2019-02-23T15:02:00.563Z,16.90
2019-02-23T15:07:21.268Z,16.92
2019-02-23T15:12:25.545Z,16.99
2019-02-23T15:17:29.829Z,17.05
2019-02-23T15:22:40.105Z,17.09
2019-02-23T15:27:44.380Z,17.16
2019-02-23T15:33:05.559Z,17.22
2019-02-23T15:38:25.128Z,17.26
2019-02-23T15:43:32.207Z,17.25
2019-02-23T15:48:48.394Z,17.40
2019-02-23T15:53:51.243Z,17.55
2019-02-23T15:58:53.976Z,17.47
2019-02-23T16:03:56.770Z,17.51
2019-02-23T16:08:59.554Z,17.49
2019-02-23T16:14:02.521Z,17.55
2019-02-23T16:19:05.257Z,17.55
2019-02-23T16:24:08.129Z,17.58
2019-02-23T16:29:11.095Z,17.59
2019-02-23T16:34:13.894Z,17.60
2019-02-23T16:39:16.741Z,17.68
2019-02-23T16:44:19.529Z,17.78
2019-02-23T16:49:22.311Z,17.83
2019-02-23T16:54:25.086Z,17.79
2019-02-23T16:59:27.875Z,17.85
2019-02-23T17:04:30.645Z,17.86
2019-02-23T17:09:33.528Z,17.90
2019-02-23T17:14:36.348Z,17.99
2019-02-23T17:19:39.162Z,17.99
2019-02-23T17:24:41.900Z,18.05
2019-02-23T17:29:44.700Z,18.05
2019-02-23T17:34:47.480Z,18.09
2019-02-23T17:39:50.248Z,18.15
2019-02-23T17:44:53.105Z,18.13
2019-02-23T17:49:55.896Z,18.20
2019-02-23T17:54:58.679Z,18.25
2019-02-23T18:00:01.515Z,18.28
2019-02-23T18:05:05.144Z,18.28
2019-02-23T18:10:08.098Z,18.29
2019-02-23T18:15:11.067Z,18.36
2019-02-23T18:20:14.005Z,18.31
2019-02-23T18:25:16.783Z,18.38
2019-02-23T18:30:19.633Z,18.31
2019-02-23T18:35:22.412Z,18.44
2019-02-23T18:40:25.205Z,18.37
2019-02-23T18:45:28.036Z,18.39
2019-02-23T18:50:30.823Z,18.38
2019-02-23T18:55:40.901Z,18.43
2019-02-23T19:00:38.173Z,18.44
2019-02-23T19:05:49.449Z,18.48
2019-02-23T19:10:45.648Z,18.52
2019-02-23T19:15:48.559Z,18.46
2019-02-23T19:20:51.327Z,18.54
2019-02-23T19:25:54.160Z,18.48
2019-02-23T19:30:56.923Z,18.52
2019-02-23T19:35:59.711Z,18.56
2019-02-23T19:41:02.967Z,18.59
2019-02-23T19:46:05.760Z,18.57
2019-02-23T19:51:09.096Z,18.58
2019-02-23T19:56:11.881Z,18.60
2019-02-23T20:01:17.555Z,18.63
2019-02-23T20:06:20.350Z,18.66
2019-02-23T20:11:23.204Z,18.66
2019-02-23T20:16:26.000Z,18.64
2019-02-23T20:21:28.787Z,18.63
2019-02-23T20:26:31.556Z,18.62
2019-02-23T20:31:34.360Z,18.70
2019-02-23T20:36:37.230Z,18.72
2019-02-23T20:41:40.016Z,18.80
2019-02-23T20:46:42.804Z,18.74
2019-02-23T20:51:45.603Z,18.80
2019-02-23T20:56:48.395Z,18.82
2019-02-23T21:01:51.187Z,18.83
2019-02-23T21:06:53.990Z,18.85
2019-02-23T21:11:56.779Z,18.87
2019-02-23T21:16:59.592Z,18.96
2019-02-23T21:22:02.412Z,18.91
2019-02-23T21:27:12.801Z,19.20
2019-02-23T21:32:09.675Z,19.07
2019-02-23T21:37:12.475Z,19.14
2019-02-23T21:42:16.254Z,19.13
2019-02-23T21:47:19.053Z,19.11
2019-02-23T21:52:21.862Z,19.14
2019-02-23T21:57:24.648Z,19.17
2019-02-23T22:02:27.445Z,19.14
2019-02-23T22:07:30.255Z,19.18
2019-02-23T22:12:33.066Z,19.24
2019-02-23T22:17:36.531Z,19.30
2019-02-23T22:22:39.341Z,19.22
2019-02-23T22:27:42.137Z,19.18
2019-02-23T22:32:44.949Z,19.07
2019-02-23T22:37:47.726Z,19.03
2019-02-23T22:42:50.560Z,18.95
2019-02-23T22:47:53.328Z,19.12
2019-02-23T22:52:56.110Z,19.12
2019-02-23T22:57:58.896Z,19.03
2019-02-23T23:03:01.684Z,19.01
2019-02-23T23:08:04.544Z,18.96
2019-02-23T23:13:07.330Z,18.96
2019-02-23T23:18:10.096Z,18.92
2019-02-23T23:23:12.883Z,18.90
2019-02-23T23:28:15.644Z,18.89
2019-02-23T23:33:18.407Z,18.85
2019-02-23T23:38:21.192Z,18.80
2019-02-23T23:43:23.980Z,18.86
2019-02-23T23:48:28.668Z,18.82
2019-02-23T23:53:31.199Z,18.82
2019-02-23T23:58:33.973Z,18.82
